Time;durP1;ratioP1;P1;durP2;ratioP2;P2;SDS_P1;SDS_P2;PMS_P1;PMS_P2;Temp;Humidity;BMP_temperature;BMP_pressure;BME280_temperature;BME280_humidity;BME280_pressure;Samples;Min_cycle;Max_cycle;Signal;HPM_P1;HPM_P2
2021/09/20 00:01:00;;;;;;;4.50;2.30;;;;;;;11.56;80.70;101278.89;112508;1192;60960;-84
2021/09/20 00:03:27;;;;;;;5.50;2.20;;;;;;;11.54;80.88;101282.98;113139;1193;62300;-80
2021/09/20 00:05:54;;;;;;;3.40;1.80;;;;;;;11.53;80.77;101286.14;112996;1192;73907;-80
2021/09/20 00:08:20;;;;;;;3.10;1.90;;;;;;;11.51;81.09;101284.59;112190;1193;60989;-82
2021/09/20 00:10:47;;;;;;;5.50;3.00;;;;;;;11.49;81.06;101283.55;112484;1193;61039;-80
2021/09/20 00:13:13;;;;;;;3.60;1.70;;;;;;;11.48;81.04;101284.92;112526;1192;74597;-81
2021/09/20 00:15:40;;;;;;;3.90;2.30;;;;;;;11.47;81.24;101284.98;112294;1193;71146;-81
2021/09/20 00:18:06;;;;;;;6.20;1.90;;;;;;;11.48;81.16;101281.36;112519;1193;61023;-81
2021/09/20 00:20:33;;;;;;;4.40;2.10;;;;;;;11.50;81.14;101282.42;112483;1193;61064;-81
2021/09/20 00:23:00;;;;;;;4.10;2.00;;;;;;;11.50;81.30;101279.92;112439;1193;61175;-82
2021/09/20 00:25:26;;;;;;;4.50;2.10;;;;;;;11.50;81.34;101277.77;112566;1192;75616;-81
2021/09/20 00:27:53;;;;;;;4.50;1.90;;;;;;;11.50;81.23;101276.39;112606;1193;72379;-83
2021/09/20 00:30:19;;;;;;;5.30;2.60;;;;;;;11.50;81.36;101278.14;112477;1192;61134;-84
2021/09/20 00:32:46;;;;;;;4.10;2.00;;;;;;;11.50;81.35;101279.20;112698;1192;60991;-81
2021/09/20 00:35:13;;;;;;;4.30;2.20;;;;;;;11.48;81.28;101281.70;112570;1193;61045;-82
2021/09/20 00:37:39;;;;;;;3.10;1.60;;;;;;;11.49;81.29;101283.05;112225;1192;74556;-82
2021/09/20 00:40:07;;;;;;;3.60;1.50;;;;;;;11.48;81.43;101286.38;112535;1193;61129;-83
2021/09/20 00:42:34;;;;;;;7.30;2.10;;;;;;;11.46;81.50;101286.20;112643;1193;74714;-82
2021/09/20 00:45:01;;;;;;;2.90;1.70;;;;;;;11.46;81.45;101288.36;112604;1193;62070;-81
2021/09/20 00:47:28;;;;;;;6.40;1.70;;;;;;;11.45;81.46;101287.33;112257;1193;60952;-81
2021/09/20 00:49:54;;;;;;;3.90;2.10;;;;;;;11.44;81.66;101287.96;112587;1193;75561;-82
2021/09/20 00:52:21;;;;;;;3.60;1.90;;;;;;;11.45;81.60;101287.02;112508;1193;62354;-82
2021/09/20 00:54:50;;;;;;;3.20;1.70;;;;;;;11.43;81.81;101286.48;112532;1193;71764;-80
2021/09/20 00:57:18;;;;;;;4.00;1.90;;;;;;;11.42;81.91;101287.99;112662;1193;61068;-80
2021/09/20 00:59:45;;;;;;;2.40;1.50;;;;;;;11.40;81.67;101286.96;112506;1192;61109;-82
2021/09/20 01:02:11;;;;;;;4.10;1.70;;;;;;;11.39;81.75;101288.69;112213;1193;75615;-81
2021/09/20 01:04:38;;;;;;;4.50;1.40;;;;;;;11.37;82.03;101289.02;112179;1193;70873;-82
2021/09/20 01:07:05;;;;;;;5.20;1.60;;;;;;;11.37;81.92;101288.40;112612;1193;72532;-82
2021/09/20 01:09:33;;;;;;;3.00;1.70;;;;;;;11.37;81.93;101285.88;112533;1193;62062;-81
2021/09/20 01:11:59;;;;;;;5.80;2.00;;;;;;;11.36;81.94;101288.43;112701;1192;61613;-81
2021/09/20 01:14:26;;;;;;;4.00;1.70;;;;;;;11.37;82.18;101293.65;112442;1193;75797;-80
2021/09/20 01:16:52;;;;;;;2.80;1.90;;;;;;;11.38;82.05;101293.04;112619;1193;61101;-82
2021/09/20 01:19:19;;;;;;;3.20;1.50;;;;;;;11.40;81.99;101294.08;112545;1193;61056;-83
2021/09/20 01:21:45;;;;;;;4.50;2.50;;;;;;;11.40;81.82;101296.39;112443;1193;61035;-82
2021/09/20 01:24:12;;;;;;;4.40;2.10;;;;;;;11.39;81.86;101299.45;112586;1193;61370;-81
2021/09/20 01:26:38;;;;;;;5.20;1.90;;;;;;;11.39;81.76;101300.55;112396;1192;61054;-80
2021/09/20 01:29:07;;;;;;;7.50;2.10;;;;;;;11.38;81.75;101299.02;112421;1193;60927;-80
2021/09/20 01:31:33;;;;;;;4.60;1.80;;;;;;;11.38;81.76;101294.63;112657;1193;72692;-82
2021/09/20 01:34:01;;;;;;;3.40;1.60;;;;;;;11.39;81.78;101299.15;112543;1192;62223;-81
2021/09/20 01:36:27;;;;;;;6.70;3.20;;;;;;;11.39;81.63;101298.05;112199;1193;61249;-82
2021/09/20 01:38:54;;;;;;;2.90;1.60;;;;;;;11.39;81.57;101299.48;112108;1193;61045;-79
2021/09/20 01:41:20;;;;;;;2.60;1.30;;;;;;;11.39;81.68;101299.83;112627;1192;60985;-81
2021/09/20 01:43:47;;;;;;;5.00;2.10;;;;;;;11.38;81.77;101301.48;112567;1193;73228;-81
2021/09/20 01:46:14;;;;;;;4.60;1.80;;;;;;;11.38;81.55;101300.48;112468;1193;61353;-80
2021/09/20 01:48:40;;;;;;;4.30;1.60;;;;;;;11.37;81.59;101300.71;112523;1193;61068;-80
2021/09/20 01:51:07;;;;;;;3.90;1.50;;;;;;;11.36;81.53;101302.51;112575;1193;75696;-82
2021/09/20 01:53:34;;;;;;;5.80;2.10;;;;;;;11.35;81.54;101298.35;112650;1193;71174;-81
2021/09/20 01:56:00;;;;;;;5.50;1.80;;;;;;;11.33;81.64;101298.55;112415;1193;72477;-83
2021/09/20 01:58:27;;;;;;;3.40;1.40;;;;;;;11.31;81.53;101298.35;112248;1193;61075;-79
2021/09/20 02:00:54;;;;;;;3.40;1.70;;;;;;;11.31;81.57;101301.41;112325;1193;61060;-81
2021/09/20 02:03:20;;;;;;;3.80;2.00;;;;;;;11.31;81.57;101305.16;112592;1193;75682;-81
2021/09/20 02:05:47;;;;;;;3.10;1.30;;;;;;;11.30;81.52;101303.98;112458;1193;71016;-82
2021/09/20 02:08:13;;;;;;;4.90;2.60;;;;;;;11.30;81.50;101303.83;112652;1192;61160;-82
2021/09/20 02:10:40;;;;;;;6.10;1.90;;;;;;;11.28;81.63;101302.66;112456;1192;61024;-81
2021/09/20 02:13:07;;;;;;;2.70;1.40;;;;;;;11.27;81.68;101302.73;112153;1194;61132;-80
2021/09/20 02:15:33;;;;;;;5.20;1.50;;;;;;;11.25;81.50;101302.61;112484;1193;61029;-80
2021/09/20 02:18:00;;;;;;;3.30;1.40;;;;;;;11.22;81.57;101304.65;112996;1192;72058;-79
2021/09/20 02:20:26;;;;;;;2.80;1.50;;;;;;;11.20;81.54;101306.31;112691;1193;61024;-81
2021/09/20 02:22:53;;;;;;;2.30;1.30;;;;;;;11.18;81.66;101306.30;112195;1193;63025;-80
2021/09/20 02:25:21;;;;;;;4.20;1.50;;;;;;;11.19;81.71;101308.73;112111;1193;61075;-82
2021/09/20 02:27:47;;;;;;;2.20;1.20;;;;;;;11.19;81.65;101308.73;112313;1193;74485;-80
2021/09/20 02:30:14;;;;;;;3.60;1.60;;;;;;;11.19;81.82;101309.57;112162;1193;72043;-83
2021/09/20 02:32:42;;;;;;;6.40;2.00;;;;;;;11.20;82.04;101307.94;112737;1193;73581;-81
2021/09/20 02:35:09;;;;;;;4.60;1.80;;;;;;;11.20;82.09;101309.01;112928;1192;61068;-80
2021/09/20 02:37:36;;;;;;;2.10;1.20;;;;;;;11.19;82.08;101306.70;112521;1193;61322;-80
2021/09/20 02:40:07;;;;;;;5.90;2.20;;;;;;;11.19;82.23;101308.66;112505;1192;74527;-79
2021/09/20 02:42:34;;;;;;;2.70;1.60;;;;;;;11.18;82.23;101307.54;112886;1193;71380;-80
2021/09/20 02:45:00;;;;;;;2.30;1.30;;;;;;;11.16;82.24;101306.23;112210;1193;73788;-80
2021/09/20 02:47:27;;;;;;;6.60;1.70;;;;;;;11.15;82.30;101307.80;112416;1192;62928;-79
2021/09/20 02:49:54;;;;;;;3.30;1.40;;;;;;;11.14;82.30;101309.59;112171;1193;61091;-81
2021/09/20 02:52:20;;;;;;;4.40;1.50;;;;;;;11.13;82.48;101311.07;112591;1193;61010;-81
2021/09/20 02:54:46;;;;;;;4.00;1.50;;;;;;;11.14;82.57;101312.52;112583;1192;61078;-81
2021/09/20 02:57:13;;;;;;;2.80;1.50;;;;;;;11.14;82.61;101315.66;112130;1197;61034;-81
2021/09/20 02:59:40;;;;;;;3.50;1.50;;;;;;;11.14;82.77;101318.52;112461;1192;61058;-81
2021/09/20 03:02:06;;;;;;;2.50;1.50;;;;;;;11.13;82.78;101320.50;112677;1193;61142;-81
2021/09/20 03:04:33;;;;;;;2.80;1.80;;;;;;;11.13;82.93;101320.13;112627;1193;74674;-81
2021/09/20 03:07:00;;;;;;;4.60;1.60;;;;;;;11.12;82.90;101321.36;112617;1192;71122;-81
2021/09/20 03:09:29;;;;;;;4.40;1.50;;;;;;;11.11;82.91;101318.61;112636;1192;73505;-81
2021/09/20 03:11:56;;;;;;;5.60;2.00;;;;;;;11.10;83.00;101322.13;112501;1193;61125;-81
2021/09/20 03:14:22;;;;;;;2.60;1.50;;;;;;;11.10;82.90;101321.02;112608;1192;61008;-80
2021/09/20 03:16:52;;;;;;;2.90;1.30;;;;;;;11.08;82.95;101324.73;112235;1193;75985;-82
2021/09/20 03:19:19;;;;;;;4.70;1.90;;;;;;;11.08;83.04;101326.20;112310;1193;71989;-82
2021/09/20 03:21:46;;;;;;;2.00;1.00;;;;;;;11.08;83.31;101331.16;112502;1193;72340;-82
2021/09/20 03:24:13;;;;;;;4.90;1.60;;;;;;;11.07;83.13;101333.41;112441;1193;61883;-82
2021/09/20 03:26:41;;;;;;;3.50;1.30;;;;;;;11.04;83.24;101337.56;112845;1192;61301;-81
2021/09/20 03:29:08;;;;;;;3.70;1.60;;;;;;;11.03;83.39;101342.65;112681;1193;75985;-81
2021/09/20 03:31:35;;;;;;;2.80;1.70;;;;;;;11.04;83.54;101347.17;112719;1192;70875;-80
2021/09/20 03:34:02;;;;;;;5.80;2.30;;;;;;;11.04;83.52;101348.39;112140;1197;73826;-80
2021/09/20 03:36:28;;;;;;;3.70;2.00;;;;;;;11.04;83.53;101345.73;112617;1192;62144;-81
2021/09/20 03:38:55;;;;;;;4.60;1.90;;;;;;;11.04;83.49;101349.30;112681;1192;61024;-82
2021/09/20 03:41:22;;;;;;;4.20;2.00;;;;;;;11.04;83.65;101348.63;112343;1193;61059;-81
2021/09/20 03:43:48;;;;;;;2.40;1.50;;;;;;;11.02;83.72;101347.86;112542;1192;72071;-82
2021/09/20 03:46:15;;;;;;;5.30;1.60;;;;;;;11.01;83.61;101349.15;112642;1193;60966;-80
2021/09/20 03:48:42;;;;;;;3.20;1.50;;;;;;;11.01;83.71;101349.86;112367;1193;61918;-82
2021/09/20 03:51:08;;;;;;;2.70;1.70;;;;;;;11.02;83.75;101349.65;112568;1192;61007;-82
2021/09/20 03:53:35;;;;;;;5.20;1.80;;;;;;;11.02;83.79;101350.98;112332;1193;61075;-82
2021/09/20 03:56:03;;;;;;;4.80;1.90;;;;;;;11.02;83.84;101350.98;112390;1193;61038;-79
2021/09/20 03:58:29;;;;;;;4.00;1.90;;;;;;;11.02;83.83;101349.23;112720;1192;72646;-81
2021/09/20 04:00:56;;;;;;;3.20;1.60;;;;;;;11.01;83.83;101345.86;112598;1192;60952;-81
2021/09/20 04:03:23;;;;;;;2.40;1.40;;;;;;;10.98;83.84;101347.91;112508;1193;60950;-81
2021/09/20 04:05:50;;;;;;;5.60;2.00;;;;;;;10.96;83.92;101348.80;112557;1193;75283;-80
2021/09/20 04:08:16;;;;;;;3.90;1.40;;;;;;;10.97;84.02;101347.61;112647;1192;61007;-83
2021/09/20 04:10:43;;;;;;;3.50;1.60;;;;;;;10.97;83.99;101349.67;112586;1192;72704;-81
2021/09/20 04:13:10;;;;;;;7.10;2.00;;;;;;;10.95;83.98;101352.27;112608;1192;61789;-81
2021/09/20 04:15:38;;;;;;;4.40;1.60;;;;;;;10.95;84.21;101348.56;112659;1193;61087;-81
2021/09/20 04:18:05;;;;;;;3.20;1.60;;;;;;;10.95;84.14;101350.70;112635;1192;74605;-80
2021/09/20 04:20:32;;;;;;;2.40;1.40;;;;;;;10.94;84.20;101350.58;112664;1192;71026;-82
2021/09/20 04:22:59;;;;;;;2.90;1.70;;;;;;;10.94;84.27;101351.54;112647;1193;74045;-82
2021/09/20 04:25:25;;;;;;;7.80;2.00;;;;;;;10.93;84.31;101352.14;112660;1193;61024;-81
2021/09/20 04:27:52;;;;;;;2.70;1.60;;;;;;;10.94;84.41;101357.52;113710;1192;61146;-82
2021/09/20 04:30:18;;;;;;;6.70;1.70;;;;;;;10.94;84.27;101357.49;114396;1192;61043;-84
2021/09/20 04:32:45;;;;;;;3.30;1.70;;;;;;;10.95;84.25;101360.28;113480;1192;61032;-85
2021/09/20 04:35:12;;;;;;;3.80;1.50;;;;;;;10.96;84.29;101363.57;112455;1193;72641;-83
2021/09/20 04:37:40;;;;;;;4.40;1.70;;;;;;;10.97;84.18;101366.64;112737;1192;61951;-83
2021/09/20 04:40:08;;;;;;;5.10;1.60;;;;;;;10.99;84.30;101368.20;112834;1192;61068;-79
2021/09/20 04:42:34;;;;;;;2.80;1.20;;;;;;;10.99;84.18;101369.89;112030;1193;74666;-79
2021/09/20 04:45:01;;;;;;;3.90;1.90;;;;;;;11.00;83.97;101376.55;112217;1193;71413;-76
2021/09/20 04:47:27;;;;;;;5.00;2.10;;;;;;;11.01;84.17;101380.17;112313;1192;61052;-75
2021/09/20 04:49:53;;;;;;;2.90;1.40;;;;;;;11.02;84.01;101381.80;112296;1192;61064;-76
2021/09/20 04:52:20;;;;;;;3.10;1.40;;;;;;;11.02;84.06;101380.08;112041;1193;61415;-76
2021/09/20 04:54:46;;;;;;;3.20;1.30;;;;;;;11.00;83.89;101385.38;112019;1192;61029;-75
2021/09/20 04:57:13;;;;;;;4.80;2.40;;;;;;;10.99;83.70;101385.88;112052;1192;61924;-76
2021/09/20 04:59:39;;;;;;;3.00;1.40;;;;;;;10.96;83.69;101388.09;112122;1192;61046;-74
2021/09/20 05:02:06;;;;;;;3.60;1.40;;;;;;;10.94;83.62;101392.63;111742;1193;62784;-75
2021/09/20 05:04:33;;;;;;;5.20;1.70;;;;;;;10.92;83.68;101394.58;112070;1193;61041;-75
2021/09/20 05:06:59;;;;;;;4.00;1.80;;;;;;;10.91;83.36;101394.52;111875;1192;61059;-75
2021/09/20 05:09:26;;;;;;;4.00;1.80;;;;;;;10.90;83.43;101397.98;112232;1192;61002;-75
2021/09/20 05:11:52;;;;;;;3.60;1.70;;;;;;;10.89;83.34;101395.95;111907;1193;62434;-75
2021/09/20 05:14:19;;;;;;;5.90;2.10;;;;;;;10.87;83.27;101398.44;112111;1193;60987;-76
2021/09/20 05:16:45;;;;;;;4.00;1.80;;;;;;;10.86;83.18;101404.07;111721;1194;61039;-76
2021/09/20 05:19:12;;;;;;;4.90;1.90;;;;;;;10.85;83.05;101404.55;111889;1192;61366;-76
2021/09/20 05:21:38;;;;;;;3.10;1.60;;;;;;;10.84;82.74;101405.50;111855;1193;62464;-75
2021/09/20 05:24:05;;;;;;;3.30;1.70;;;;;;;10.84;82.50;101404.21;112250;1193;61023;-74
2021/09/20 05:26:32;;;;;;;4.90;1.60;;;;;;;10.84;82.13;101401.42;112162;1192;61061;-75
2021/09/20 05:28:58;;;;;;;3.30;1.50;;;;;;;10.85;82.11;101403.06;111974;1193;61007;-77
2021/09/20 05:31:25;;;;;;;2.80;1.40;;;;;;;10.85;81.69;101406.95;111695;1193;61020;-76
2021/09/20 05:33:51;;;;;;;5.50;1.90;;;;;;;10.85;81.49;101406.99;112036;1193;61070;-76
2021/09/20 05:36:18;;;;;;;5.30;1.40;;;;;;;10.85;81.06;101407.12;112246;1192;61021;-76
2021/09/20 05:38:44;;;;;;;12.50;3.30;;;;;;;10.85;80.73;101410.55;112177;1193;60954;-76
2021/09/20 05:41:11;;;;;;;4.40;1.40;;;;;;;10.85;80.57;101412.13;112145;1193;61067;-76
2021/09/20 05:43:37;;;;;;;5.80;1.50;;;;;;;10.86;80.73;101412.73;112156;1192;61041;-75
2021/09/20 05:46:04;;;;;;;2.80;1.20;;;;;;;10.89;80.73;101418.82;111977;1193;61364;-76
2021/09/20 05:48:30;;;;;;;8.20;4.20;;;;;;;10.90;80.34;101422.52;112234;1192;61141;-77
2021/09/20 05:50:57;;;;;;;3.10;1.40;;;;;;;10.92;80.22;101428.13;112285;1193;61046;-78
2021/09/20 05:53:23;;;;;;;2.40;1.50;;;;;;;10.95;79.87;101429.49;112460;1193;60951;-77
2021/09/20 05:55:50;;;;;;;9.50;2.30;;;;;;;10.96;79.66;101429.13;112615;1192;61625;-76
2021/09/20 05:58:16;;;;;;;4.30;2.00;;;;;;;10.99;79.45;101434.33;112394;1193;61017;-78
2021/09/20 06:00:43;;;;;;;2.80;1.80;;;;;;;11.01;79.28;101433.61;112360;1192;61043;-77
2021/09/20 06:03:10;;;;;;;8.80;5.20;;;;;;;11.04;79.17;101436.17;112368;1193;60957;-75
2021/09/20 06:05:38;;;;;;;4.30;2.40;;;;;;;11.07;79.08;101437.08;112461;1192;61045;-79
2021/09/20 06:08:06;;;;;;;2.70;1.40;;;;;;;11.09;79.13;101435.27;111941;1193;74705;-77
2021/09/20 06:10:34;;;;;;;4.70;2.50;;;;;;;11.10;78.99;101436.89;112345;1193;71367;-78
2021/09/20 06:13:04;;;;;;;5.50;2.70;;;;;;;11.13;78.66;101437.63;112502;1193;72765;-78
2021/09/20 06:15:31;;;;;;;9.10;3.00;;;;;;;11.16;78.77;101438.25;112312;1192;62351;-76
2021/09/20 06:17:58;;;;;;;3.90;1.40;;;;;;;11.19;78.49;101442.07;112262;1192;61212;-74
2021/09/20 06:20:25;;;;;;;4.80;1.70;;;;;;;11.20;78.32;101442.68;112426;1192;74743;-76
2021/09/20 06:22:52;;;;;;;3.00;1.20;;;;;;;11.21;78.08;101445.67;112391;1192;72018;-76
2021/09/20 06:25:18;;;;;;;2.40;1.20;;;;;;;11.23;78.13;101445.47;111912;1193;73828;-76
2021/09/20 06:27:45;;;;;;;3.30;1.20;;;;;;;11.25;77.95;101444.42;112035;1193;60967;-74
2021/09/20 06:30:13;;;;;;;3.40;1.40;;;;;;;11.27;77.97;101447.08;112438;1193;61367;-76
2021/09/20 06:32:40;;;;;;;4.60;1.20;;;;;;;11.29;77.99;101448.11;112037;1193;74844;-76
2021/09/20 06:35:07;;;;;;;3.90;1.90;;;;;;;11.32;78.27;101444.95;112420;1192;72363;-76
2021/09/20 06:37:34;;;;;;;2.10;1.10;;;;;;;11.35;78.42;101444.08;112406;1192;73612;-76
2021/09/20 06:40:00;;;;;;;2.00;1.20;;;;;;;11.39;78.56;101445.26;112252;1192;61522;-76
2021/09/20 06:42:27;;;;;;;2.00;1.10;;;;;;;11.42;78.64;101446.16;112115;1193;61415;-77
2021/09/20 06:44:53;;;;;;;3.60;1.50;;;;;;;11.45;78.49;101445.33;112062;1193;74835;-76
2021/09/20 06:47:21;;;;;;;4.40;1.90;;;;;;;11.50;78.85;101443.93;112067;1193;61165;-77
2021/09/20 06:49:48;;;;;;;3.20;1.60;;;;;;;11.55;79.07;101446.20;112376;1184;71323;-78
2021/09/20 06:52:16;;;;;;;9.30;5.30;;;;;;;11.59;78.96;101442.39;112396;1193;62026;-75
2021/09/20 06:54:43;;;;;;;3.80;1.60;;;;;;;11.63;78.97;101440.73;111831;1193;61291;-77
2021/09/20 06:57:09;;;;;;;4.30;2.40;;;;;;;11.69;78.97;101441.37;112023;1193;60978;-77
2021/09/20 06:59:36;;;;;;;4.30;1.50;;;;;;;11.74;79.01;101445.23;112311;1192;70972;-76
2021/09/20 07:02:02;;;;;;;3.20;1.40;;;;;;;11.79;78.95;101442.95;112176;1193;72804;-75
2021/09/20 07:04:30;;;;;;;5.40;1.80;;;;;;;11.83;78.95;101446.07;112316;1193;61874;-76
2021/09/20 07:06:56;;;;;;;3.60;1.90;;;;;;;11.89;78.77;101447.83;111887;1192;61259;-77
2021/09/20 07:09:23;;;;;;;8.30;3.40;;;;;;;11.92;78.57;101448.47;112047;1192;75987;-77
2021/09/20 07:11:49;;;;;;;5.70;1.50;;;;;;;11.96;78.64;101448.23;112353;1192;61065;-78
2021/09/20 07:14:16;;;;;;;5.10;2.70;;;;;;;12.00;78.45;101450.84;112218;1193;62018;-76
2021/09/20 07:16:42;;;;;;;2.20;1.10;;;;;;;12.02;78.25;101450.73;111818;1193;61055;-76
2021/09/20 07:19:12;;;;;;;3.10;1.30;;;;;;;12.04;77.87;101452.37;112241;1193;61043;-76
2021/09/20 07:21:38;;;;;;;3.50;2.10;;;;;;;12.05;77.97;101456.30;112248;1193;61969;-76
2021/09/20 07:24:05;;;;;;;5.50;1.30;;;;;;;12.07;78.11;101456.17;112401;1192;61010;-73
2021/09/20 07:26:32;;;;;;;3.60;1.50;;;;;;;12.09;78.15;101454.49;112225;1193;61071;-73
2021/09/20 07:28:58;;;;;;;4.60;1.30;;;;;;;12.12;78.23;101458.02;112039;1192;61142;-75
2021/09/20 07:31:25;;;;;;;2.80;1.60;;;;;;;12.16;78.41;101460.80;112175;1192;61061;-75
2021/09/20 07:33:52;;;;;;;3.10;1.70;;;;;;;12.20;78.28;101462.30;111926;1193;76367;-73
2021/09/20 07:36:19;;;;;;;16.50;10.10;;;;;;;12.27;78.33;101465.52;112025;1192;71076;-74
2021/09/20 07:38:46;;;;;;;8.80;3.50;;;;;;;12.31;77.94;101464.00;112092;1192;73786;-74
2021/09/20 07:41:13;;;;;;;6.00;1.70;;;;;;;12.35;77.65;101466.95;112373;1193;62517;-74
2021/09/20 07:43:44;;;;;;;5.20;1.40;;;;;;;12.40;77.91;101472.20;112334;1192;61058;-74
2021/09/20 07:46:13;;;;;;;4.20;1.90;;;;;;;12.44;77.41;101478.38;112552;1192;75830;-76
2021/09/20 07:48:41;;;;;;;4.40;2.50;;;;;;;12.46;77.33;101484.00;112432;1192;72069;-73
2021/09/20 07:51:08;;;;;;;2.70;1.60;;;;;;;12.49;76.98;101483.60;112420;1192;73042;-77
2021/09/20 07:53:34;;;;;;;3.90;1.60;;;;;;;12.52;77.01;101486.67;111852;1193;60984;-76
2021/09/20 07:56:01;;;;;;;5.00;1.60;;;;;;;12.56;76.94;101486.10;112174;1193;61056;-76
2021/09/20 07:58:27;;;;;;;6.60;3.70;;;;;;;12.64;77.01;101493.70;112263;1192;61064;-76
2021/09/20 08:00:54;;;;;;;7.00;1.90;;;;;;;12.72;76.40;101493.37;112286;1192;61055;-74
2021/09/20 08:03:22;;;;;;;5.60;1.50;;;;;;;12.79;76.19;101499.48;112366;1193;72741;-73
2021/09/20 08:05:49;;;;;;;5.40;2.30;;;;;;;12.88;75.97;101498.77;112441;1192;61081;-73
2021/09/20 08:08:15;;;;;;;8.30;3.60;;;;;;;12.93;75.53;101500.40;112368;1192;61103;-75
2021/09/20 08:10:42;;;;;;;7.60;4.00;;;;;;;12.98;75.43;101505.34;112178;1177;61033;-75
2021/09/20 08:13:09;;;;;;;5.70;3.10;;;;;;;13.03;75.22;101502.86;112155;1192;72247;-75
2021/09/20 08:15:37;;;;;;;3.60;1.60;;;;;;;13.08;75.18;101500.89;112100;1192;73570;-74
2021/09/20 08:18:04;;;;;;;2.10;1.00;;;;;;;13.14;74.63;101500.09;112341;1192;61032;-73
2021/09/20 08:20:31;;;;;;;1.90;1.20;;;;;;;13.19;74.51;101501.14;111834;1193;61109;-75
2021/09/20 08:22:58;;;;;;;3.80;1.50;;;;;;;13.28;74.82;101503.25;111923;1193;75618;-73
2021/09/20 08:25:25;;;;;;;2.50;1.30;;;;;;;13.38;74.41;101502.48;111913;1193;60987;-76
2021/09/20 08:27:53;;;;;;;2.40;1.00;;;;;;;13.48;73.78;101501.45;112018;1192;73572;-73
2021/09/20 08:30:21;;;;;;;2.10;1.00;;;;;;;13.55;73.18;101507.05;111942;1193;61120;-74
2021/09/20 08:32:48;;;;;;;4.30;1.40;;;;;;;13.62;73.16;101508.17;112018;1192;61068;-73
2021/09/20 08:35:15;;;;;;;3.20;1.60;;;;;;;13.71;72.80;101507.00;111895;1192;74797;-73
2021/09/20 08:37:42;;;;;;;3.50;1.10;;;;;;;13.78;71.94;101505.85;112238;1192;72126;-75
2021/09/20 08:40:09;;;;;;;5.20;2.30;;;;;;;13.81;71.15;101501.56;112369;1192;73648;-74
2021/09/20 08:42:37;;;;;;;4.50;1.90;;;;;;;13.87;71.02;101503.55;112333;1192;61026;-74
2021/09/20 08:45:06;;;;;;;2.40;1.40;;;;;;;13.95;70.60;101505.70;112037;1193;61084;-72
2021/09/20 08:47:33;;;;;;;5.70;1.80;;;;;;;14.01;70.29;101507.13;111973;1193;74740;-73
2021/09/20 08:50:01;;;;;;;2.00;1.30;;;;;;;14.11;70.45;101512.37;111879;1192;70742;-73
2021/09/20 08:52:27;;;;;;;3.00;1.50;;;;;;;14.20;69.52;101515.53;112251;1192;71711;-73
2021/09/20 08:54:55;;;;;;;3.40;1.30;;;;;;;14.23;69.05;101518.78;112182;1193;61049;-73
2021/09/20 08:57:22;;;;;;;2.00;1.30;;;;;;;14.30;68.81;101520.49;111992;1193;61186;-74
2021/09/20 08:59:48;;;;;;;3.80;1.30;;;;;;;14.39;68.53;101518.35;112397;1193;74283;-73
2021/09/20 09:02:18;;;;;;;4.30;1.50;;;;;;;14.52;67.98;101517.67;112359;1192;70968;-73
2021/09/20 09:04:45;;;;;;;2.20;1.10;;;;;;;14.64;67.57;101519.29;112599;1193;73625;-73
2021/09/20 09:07:14;;;;;;;3.50;2.20;;;;;;;14.73;67.26;101520.31;111826;1193;61383;-72
2021/09/20 09:09:48;;;;;;;2.30;1.20;;;;;;;14.77;66.24;101521.73;112323;1192;60984;-72
2021/09/20 09:12:28;;;;;;;2.00;1.20;;;;;;;14.78;66.18;101524.26;112187;1193;74300;-73
2021/09/20 09:15:01;;;;;;;2.30;1.60;;;;;;;14.90;66.82;101528.05;112282;1192;72027;-75
2021/09/20 09:17:35;;;;;;;2.50;1.20;;;;;;;15.02;66.44;101525.50;112222;1192;74614;-72
2021/09/20 09:20:15;;;;;;;4.60;2.90;;;;;;;15.12;64.91;101527.35;112368;1192;61014;-74
2021/09/20 09:22:47;;;;;;;3.20;1.40;;;;;;;15.24;64.46;101526.30;111908;1193;61045;-75
2021/09/20 09:25:25;;;;;;;2.60;1.50;;;;;;;15.39;63.63;101527.85;112228;1192;74806;-74
2021/09/20 09:27:56;;;;;;;2.50;1.30;;;;;;;15.56;63.20;101527.98;111945;1193;71314;-74
2021/09/20 09:30:25;;;;;;;3.20;1.40;;;;;;;15.70;62.51;101528.54;112365;1192;73572;-74
2021/09/20 09:33:10;;;;;;;4.40;1.70;;;;;;;15.83;61.89;101532.12;112290;1193;60985;-73
2021/09/20 09:35:38;;;;;;;2.70;1.40;;;;;;;15.99;61.09;101532.36;112234;1192;60985;-73
2021/09/20 09:38:08;;;;;;;4.80;1.80;;;;;;;16.13;59.95;101537.06;112203;1193;75606;-74
2021/09/20 09:40:58;;;;;;;4.50;1.20;;;;;;;16.28;60.33;101535.31;112200;1192;71517;-72
2021/09/20 09:43:40;;;;;;;3.20;1.40;;;;;;;16.45;58.63;101536.17;112324;1192;72539;-73
2021/09/20 09:46:20;;;;;;;2.40;1.00;;;;;;;16.55;57.70;101537.77;111924;1193;61557;-75
2021/09/20 09:48:48;;;;;;;4.90;1.00;;;;;;;16.66;56.81;101539.84;111864;1193;61075;-73
2021/09/20 09:51:17;;;;;;;3.40;0.90;;;;;;;16.70;55.38;101538.80;111908;1193;75118;-73
2021/09/20 09:53:46;;;;;;;6.10;2.50;;;;;;;16.79;54.90;101541.02;112329;1192;71031;-71
2021/09/20 09:56:20;;;;;;;2.20;1.00;;;;;;;16.90;54.27;101544.37;112321;1193;72641;-72
2021/09/20 09:59:03;;;;;;;2.10;1.30;;;;;;;17.02;53.82;101546.35;112347;1193;61095;-72
2021/09/20 10:01:38;;;;;;;2.50;1.30;;;;;;;17.18;53.60;101546.10;111982;1192;61274;-73
2021/09/20 10:04:23;;;;;;;4.70;1.20;;;;;;;17.29;52.58;101548.27;111935;1193;75593;-72
2021/09/20 10:06:54;;;;;;;2.50;0.90;;;;;;;17.41;52.55;101549.15;112318;1176;70962;-74
2021/09/20 10:09:26;;;;;;;4.00;1.30;;;;;;;17.52;52.67;101548.44;112003;1193;72640;-75
2021/09/20 10:11:59;;;;;;;2.80;0.90;;;;;;;17.60;51.82;101547.67;112391;1192;61669;-73
2021/09/20 10:14:28;;;;;;;4.70;1.30;;;;;;;17.65;52.29;101544.72;112324;1193;61585;-72
2021/09/20 10:16:58;;;;;;;2.40;1.00;;;;;;;17.68;52.20;101545.30;112506;1192;75731;-73
2021/09/20 10:19:25;;;;;;;1.50;1.00;;;;;;;17.69;51.59;101544.77;112471;1193;71049;-72
2021/09/20 10:21:53;;;;;;;3.00;1.00;;;;;;;17.75;51.61;101543.72;112250;1192;71361;-72
2021/09/20 10:24:20;;;;;;;2.30;0.90;;;;;;;17.87;51.50;101544.86;111816;1193;61022;-74
2021/09/20 10:26:51;;;;;;;1.80;1.00;;;;;;;17.95;50.74;101547.89;112076;1192;61055;-73
2021/09/20 10:29:19;;;;;;;2.50;1.00;;;;;;;18.00;50.87;101542.83;112086;1192;74612;-72
2021/09/20 10:31:49;;;;;;;1.90;1.00;;;;;;;18.04;48.55;101543.73;112165;1192;72050;-73
2021/09/20 10:34:24;;;;;;;1.50;0.90;;;;;;;18.02;47.60;101540.02;112429;1192;72586;-72
2021/09/20 10:36:58;;;;;;;5.90;1.70;;;;;;;18.03;47.58;101538.83;112156;1192;62196;-73
2021/09/20 10:39:50;;;;;;;1.90;1.10;;;;;;;18.01;48.05;101540.30;112129;1192;62383;-73
2021/09/20 10:42:35;;;;;;;4.10;1.20;;;;;;;17.96;48.68;101535.05;112106;1193;75778;-75
2021/09/20 10:45:05;;;;;;;3.20;0.90;;;;;;;17.92;49.21;101535.61;111970;1193;70996;-73
2021/09/20 10:47:45;;;;;;;4.00;1.20;;;;;;;17.89;48.31;101535.27;112366;1192;73761;-73
2021/09/20 10:50:13;;;;;;;3.50;1.10;;;;;;;17.87;48.51;101531.61;111732;1193;61112;-74
2021/09/20 10:53:14;;;;;;;1.90;0.80;;;;;;;17.88;47.90;101533.30;112254;1192;61566;-73
2021/09/20 10:56:00;;;;;;;2.70;1.50;;;;;;;17.87;46.82;101530.30;112322;1192;74386;-72
2021/09/20 10:58:26;;;;;;;2.00;1.00;;;;;;;17.83;47.92;101526.39;112261;1192;71012;-75
2021/09/20 11:01:11;;;;;;;1.90;0.90;;;;;;;17.82;48.52;101527.20;112475;1192;61087;-73
2021/09/20 11:03:46;;;;;;;1.50;0.70;;;;;;;17.78;47.05;101520.36;112159;1193;60999;-73
2021/09/20 11:06:30;;;;;;;1.70;0.90;;;;;;;17.82;47.07;101521.64;112344;1193;61033;-73
2021/09/20 11:08:59;;;;;;;4.30;1.00;;;;;;;17.93;47.10;101522.58;112004;1192;75491;-74
2021/09/20 11:14:19;;;;;;;3.30;1.20;;;;;;;18.00;47.12;101511.80;112219;1193;73105;-73
2021/09/20 11:16:53;;;;;;;2.90;1.20;;;;;;;18.12;46.93;101512.16;112316;1192;61049;-72
2021/09/20 11:19:29;;;;;;;1.90;1.00;;;;;;;18.21;45.74;101511.21;112024;1193;61071;-72
2021/09/20 11:22:10;;;;;;;3.10;1.30;;;;;;;18.25;45.53;101510.39;112614;1192;74574;-74
2021/09/20 11:24:38;;;;;;;2.00;0.90;;;;;;;18.44;45.18;101507.25;112533;1192;72302;-73